Time;durP1;ratioP1;P1;durP2;ratioP2;P2;SDS_P1;SDS_P2;PMS_P1;PMS_P2;Temp;Humidity;BMP_temperature;BMP_pressure;BME280_temperature;BME280_humidity;BME280_pressure;Samples;Min_cycle;Max_cycle;Signal;HPM_P1;HPM_P2
2023/11/23 09:42:30;;;;;;;1999.90;999.90;;;;;;;;;;5067563;28;20863;-70
2023/11/23 09:44:57;;;;;;;1999.90;999.90;;;;;;;;;;5065082;28;20078;-70
2023/11/23 09:47:31;;;;;;;1999.90;999.90;;;;;;;;;;5066545;28;20435;-71
2023/11/23 09:50:00;;;;;;;1999.90;999.90;;;;;;;;;;5067439;28;20029;-71
2023/11/23 09:52:28;;;;;;;1999.90;999.90;;;;;;;;;;5067931;28;20025;-70
2023/11/23 09:54:57;;;;;;;1999.90;999.90;;;;;;;;;;5068087;28;20039;-70
2023/11/23 09:57:23;;;;;;;1999.90;999.90;;;;;;;;;;5067654;28;20067;-71
2023/11/23 09:59:49;;;;;;;1999.90;999.90;;;;;;;;;;5067021;28;20025;-72
2023/11/23 10:02:21;;;;;;;1999.90;999.90;;;;;;;;;;5064640;28;20439;-71
2023/11/23 10:04:48;;;;;;;1999.90;999.90;;;;;;;;;;5066710;28;20031;-71
2023/11/23 10:07:16;;;;;;;1999.90;999.90;;;;;;;;;;5066555;28;20358;-72
2023/11/23 10:09:42;;;;;;;1999.90;999.90;;;;;;;;;;5066677;28;20078;-72
2023/11/23 10:12:08;;;;;;;1999.90;999.90;;;;;;;;;;5065692;28;20025;-69
2023/11/23 10:14:35;;;;;;;1999.90;999.90;;;;;;;;;;5067615;28;20083;-69
2023/11/23 10:17:01;;;;;;;1999.90;999.90;;;;;;;;;;5066704;28;20032;-70
2023/11/23 10:19:27;;;;;;;1999.90;999.90;;;;;;;;;;5066852;28;20029;-70
2023/11/23 10:21:58;;;;;;;1999.90;999.90;;;;;;;;;;5066483;28;20032;-71
2023/11/23 10:24:25;;;;;;;1999.90;999.90;;;;;;;;;;5032003;28;20025;-68
2023/11/23 10:26:52;;;;;;;1999.90;999.90;;;;;;;;;;5027342;28;20041;-70
2023/11/23 10:29:18;;;;;;;1999.90;999.90;;;;;;;;;;5027363;28;20018;-68
2023/11/23 10:31:45;;;;;;;1999.90;999.90;;;;;;;;;;5027251;28;20029;-68
2023/11/23 10:34:13;;;;;;;1999.90;999.90;;;;;;;;;;5032846;28;20032;-71
2023/11/23 10:36:43;;;;;;;1999.90;999.90;;;;;;;;;;5045366;28;20029;-70
2023/11/23 10:39:11;;;;;;;1999.90;999.90;;;;;;;;;;5039938;28;20032;-71
2023/11/23 10:41:39;;;;;;;1999.90;999.90;;;;;;;;;;5035955;28;20072;-70
2023/11/23 10:44:07;;;;;;;1999.90;999.90;;;;;;;;;;5044490;28;20029;-71
2023/11/23 10:46:34;;;;;;;1999.90;999.90;;;;;;;;;;5042912;28;20029;-72
2023/11/23 10:49:01;;;;;;;1999.90;999.90;;;;;;;;;;5032631;28;20156;-70
2023/11/23 10:51:28;;;;;;;1999.90;999.90;;;;;;;;;;5034625;28;20451;-71
2023/11/23 10:53:54;;;;;;;1999.90;999.90;;;;;;;;;;5020348;28;20025;-71
2023/11/23 10:56:21;;;;;;;1999.90;999.90;;;;;;;;;;5021190;28;20047;-67
2023/11/23 10:58:50;;;;;;;1999.90;999.90;;;;;;;;;;5028279;28;20033;-70
2023/11/23 11:01:21;;;;;;;1999.90;999.90;;;;;;;;;;5032820;28;20111;-69
2023/11/23 11:03:48;;;;;;;1999.90;999.90;;;;;;;;;;5029420;28;20029;-70
2023/11/23 11:06:17;;;;;;;1999.90;999.90;;;;;;;;;;5021766;28;20040;-70
2023/11/23 11:08:47;;;;;;;1999.90;999.90;;;;;;;;;;5030251;28;20383;-71
2023/11/23 11:11:17;;;;;;;1999.90;999.90;;;;;;;;;;5032451;28;20056;-70
2023/11/23 11:13:43;;;;;;;1999.90;999.90;;;;;;;;;;5029662;28;20021;-70
2023/11/23 11:16:12;;;;;;;1999.90;999.90;;;;;;;;;;5030514;28;20029;-71
2023/11/23 11:18:38;;;;;;;1999.90;999.90;;;;;;;;;;5053337;28;20033;-70
2023/11/23 11:21:14;;;;;;;1999.90;999.90;;;;;;;;;;5017840;28;20420;-71
2023/11/23 11:23:41;;;;;;;1999.90;999.90;;;;;;;;;;5017259;28;20026;-70
2023/11/23 11:26:18;;;;;;;1999.90;999.90;;;;;;;;;;5017377;28;20115;-70
2023/11/23 11:28:52;;;;;;;1999.90;999.90;;;;;;;;;;5031288;28;20021;-70
2023/11/23 11:31:19;;;;;;;1999.90;999.90;;;;;;;;;;5031161;28;20075;-70
2023/11/23 11:33:54;;;;;;;1999.90;999.90;;;;;;;;;;5031118;28;20136;-71
2023/11/23 11:36:20;;;;;;;1999.90;999.90;;;;;;;;;;5031712;28;20485;-69
2023/11/23 11:38:56;;;;;;;1999.90;999.90;;;;;;;;;;5031649;28;20143;-71
2023/11/23 11:41:22;;;;;;;1999.90;999.90;;;;;;;;;;5031249;28;20056;-69
2023/11/23 11:43:48;;;;;;;1999.90;999.90;;;;;;;;;;5031886;28;20607;-72
2023/11/23 11:46:15;;;;;;;1999.90;999.90;;;;;;;;;;5031500;28;20039;-72
2023/11/23 11:48:41;;;;;;;1999.90;999.90;;;;;;;;;;5029593;28;20041;-71
2023/11/23 11:51:08;;;;;;;1999.90;999.90;;;;;;;;;;5028924;28;20033;-71
2023/11/23 11:53:34;;;;;;;1999.90;999.90;;;;;;;;;;5031135;28;20025;-70
2023/11/23 11:56:01;;;;;;;1999.90;999.90;;;;;;;;;;5025722;28;20065;-71
2023/11/23 11:58:28;;;;;;;1999.90;999.90;;;;;;;;;;5030330;28;20025;-72
2023/11/23 12:00:54;;;;;;;1999.90;999.90;;;;;;;;;;5063706;28;20045;-71
2023/11/23 12:03:20;;;;;;;1999.90;999.90;;;;;;;;;;5030028;28;20041;-71
2023/11/23 12:05:46;;;;;;;1999.90;999.90;;;;;;;;;;5053639;28;20041;-71
2023/11/23 12:08:12;;;;;;;1999.90;999.90;;;;;;;;;;5021921;28;20373;-72
2023/11/23 12:10:39;;;;;;;1999.90;999.90;;;;;;;;;;5016467;28;20034;-70
2023/11/23 12:13:06;;;;;;;1999.90;999.90;;;;;;;;;;5013391;28;20120;-71
2023/11/23 12:15:32;;;;;;;1999.90;999.90;;;;;;;;;;5018853;28;20049;-70
2023/11/23 12:18:02;;;;;;;1999.90;999.90;;;;;;;;;;5011292;28;20105;-72
2023/11/23 12:20:41;;;;;;;1999.90;999.90;;;;;;;;;;5010293;28;20034;-71
2023/11/23 12:23:08;;;;;;;1999.90;999.90;;;;;;;;;;5028787;28;20104;-69
2023/11/23 12:25:35;;;;;;;1999.90;999.90;;;;;;;;;;5030488;28;20107;-70
2023/11/23 12:28:04;;;;;;;1999.90;999.90;;;;;;;;;;5030274;28;20384;-71
2023/11/23 12:30:31;;;;;;;1999.90;999.90;;;;;;;;;;5030894;28;20695;-70
2023/11/23 12:33:00;;;;;;;1999.90;999.90;;;;;;;;;;5030739;28;20014;-70
2023/11/23 12:35:26;;;;;;;1999.90;999.90;;;;;;;;;;5023139;28;20026;-73
2023/11/23 12:37:52;;;;;;;1999.90;999.90;;;;;;;;;;5052755;28;20032;-70
2023/11/23 12:40:18;;;;;;;1999.90;999.90;;;;;;;;;;5021529;28;20037;-70
2023/11/23 12:42:47;;;;;;;1999.90;999.90;;;;;;;;;;5019902;28;20026;-76
2023/11/23 12:45:13;;;;;;;1999.90;999.90;;;;;;;;;;5020399;28;20040;-72
2023/11/23 12:47:39;;;;;;;1999.90;999.90;;;;;;;;;;5021463;28;20091;-71
2023/11/23 12:50:10;;;;;;;1999.90;999.90;;;;;;;;;;5019756;28;20022;-70
2023/11/23 12:52:38;;;;;;;1999.90;999.90;;;;;;;;;;5019819;28;20024;-70
2023/11/23 12:55:05;;;;;;;1999.90;999.90;;;;;;;;;;5021644;28;20029;-70
2023/11/23 12:57:32;;;;;;;1999.90;999.90;;;;;;;;;;5025364;28;20079;-69
2023/11/23 12:59:59;;;;;;;1999.90;999.90;;;;;;;;;;5021352;28;20716;-69
2023/11/23 13:02:25;;;;;;;1999.90;999.90;;;;;;;;;;5021342;28;20059;-68
2023/11/23 13:04:51;;;;;;;1999.90;999.90;;;;;;;;;;5020865;28;20084;-69
2023/11/23 13:07:17;;;;;;;1999.90;999.90;;;;;;;;;;5019808;28;20033;-69
2023/11/23 13:09:43;;;;;;;1999.90;999.90;;;;;;;;;;5021572;28;20033;-69
2023/11/23 13:12:09;;;;;;;1999.90;999.90;;;;;;;;;;5019950;28;20038;-68
2023/11/23 13:14:35;;;;;;;1999.90;999.90;;;;;;;;;;5019618;28;20362;-69
2023/11/23 13:17:04;;;;;;;1999.90;999.90;;;;;;;;;;5019205;28;20104;-70
2023/11/23 13:19:32;;;;;;;1999.90;999.90;;;;;;;;;;5021577;28;20033;-69
2023/11/23 13:21:58;;;;;;;1999.90;999.90;;;;;;;;;;5018718;28;20030;-69
2023/11/23 13:24:24;;;;;;;1999.90;999.90;;;;;;;;;;5015738;28;20030;-70
2023/11/23 13:26:51;;;;;;;1999.90;999.90;;;;;;;;;;5010794;28;20037;-69
2023/11/23 13:29:17;;;;;;;1999.90;999.90;;;;;;;;;;5011062;28;20079;-74
2023/11/23 13:31:43;;;;;;;1999.90;999.90;;;;;;;;;;5010543;28;20057;-72
2023/11/23 13:34:10;;;;;;;1999.90;999.90;;;;;;;;;;5010444;28;20037;-75
2023/11/23 13:36:36;;;;;;;1999.90;999.90;;;;;;;;;;5011023;28;20076;-71
2023/11/23 13:39:03;;;;;;;1999.90;999.90;;;;;;;;;;5010874;28;20154;-72
2023/11/23 13:41:30;;;;;;;1999.90;999.90;;;;;;;;;;5010191;28;20062;-73
2023/11/23 13:43:56;;;;;;;1999.90;999.90;;;;;;;;;;5010781;28;20033;-72
2023/11/23 13:46:24;;;;;;;1999.90;999.90;;;;;;;;;;5010552;28;20073;-73
2023/11/23 13:48:52;;;;;;;1999.90;999.90;;;;;;;;;;5010620;28;20544;-71
2023/11/23 13:51:20;;;;;;;1999.90;999.90;;;;;;;;;;5010041;28;20026;-71
2023/11/23 13:53:47;;;;;;;1999.90;999.90;;;;;;;;;;5010514;28;20488;-70
2023/11/23 13:56:13;;;;;;;1999.90;999.90;;;;;;;;;;5010763;28;20034;-70
2023/11/23 13:58:39;;;;;;;1999.90;999.90;;;;;;;;;;5022252;28;20075;-69
2023/11/23 14:01:06;;;;;;;1999.90;999.90;;;;;;;;;;5020332;28;20037;-69
2023/11/23 14:03:34;;;;;;;1999.90;999.90;;;;;;;;;;5020488;28;20026;-68
2023/11/23 14:06:02;;;;;;;1999.90;999.90;;;;;;;;;;5011756;28;20090;-71
2023/11/23 14:08:28;;;;;;;1999.90;999.90;;;;;;;;;;5015868;28;20022;-71
2023/11/23 14:10:54;;;;;;;1999.90;999.90;;;;;;;;;;5020422;28;20068;-72
2023/11/23 14:13:20;;;;;;;1999.90;999.90;;;;;;;;;;5016780;28;20116;-70
2023/11/23 14:15:46;;;;;;;1999.90;999.90;;;;;;;;;;5017886;28;20029;-71
2023/11/23 14:18:13;;;;;;;1999.90;999.90;;;;;;;;;;5020045;28;20032;-74
2023/11/23 14:20:42;;;;;;;1999.90;999.90;;;;;;;;;;5018038;28;20080;-74
2023/11/23 14:23:09;;;;;;;1999.90;999.90;;;;;;;;;;5011519;28;20604;-71
2023/11/23 14:25:36;;;;;;;1999.90;999.90;;;;;;;;;;5010277;28;20036;-71
2023/11/23 14:28:02;;;;;;;1999.90;999.90;;;;;;;;;;5026282;28;20025;-71
2023/11/23 14:30:28;;;;;;;1999.90;999.90;;;;;;;;;;5033406;28;20033;-73
2023/11/23 14:32:54;;;;;;;1999.90;999.90;;;;;;;;;;5024264;28;20021;-72
2023/11/23 14:35:21;;;;;;;1999.90;999.90;;;;;;;;;;5026427;28;20101;-70
2023/11/23 14:37:49;;;;;;;1999.90;999.90;;;;;;;;;;5033782;28;20030;-70
2023/11/23 14:40:18;;;;;;;1999.90;999.90;;;;;;;;;;5033422;28;20155;-76
2023/11/23 14:42:46;;;;;;;1999.90;999.90;;;;;;;;;;5033848;28;20033;-74
2023/11/23 14:45:12;;;;;;;1999.90;999.90;;;;;;;;;;5033501;28;20476;-72
2023/11/23 14:47:39;;;;;;;1999.90;999.90;;;;;;;;;;5033614;28;20052;-75
2023/11/23 14:50:09;;;;;;;1999.90;999.90;;;;;;;;;;5033144;28;20044;-71
2023/11/23 14:52:36;;;;;;;1999.90;999.90;;;;;;;;;;5033420;28;20037;-72
2023/11/23 14:55:03;;;;;;;1999.90;999.90;;;;;;;;;;5033385;28;20022;-70
2023/11/23 14:57:29;;;;;;;1999.90;999.90;;;;;;;;;;5033460;28;20388;-70
2023/11/23 14:59:58;;;;;;;1999.90;999.90;;;;;;;;;;5033339;28;20488;-69
2023/11/23 15:02:24;;;;;;;1999.90;999.90;;;;;;;;;;5032921;28;20041;-71
2023/11/23 15:04:50;;;;;;;1999.90;999.90;;;;;;;;;;5032523;28;20100;-71
2023/11/23 15:07:16;;;;;;;1999.90;999.90;;;;;;;;;;5033319;28;20033;-71
2023/11/23 15:09:42;;;;;;;1999.90;999.90;;;;;;;;;;5032803;28;20075;-70
2023/11/23 15:12:13;;;;;;;1999.90;999.90;;;;;;;;;;5032946;28;20461;-72
2023/11/23 15:14:41;;;;;;;1999.90;999.90;;;;;;;;;;5032863;28;20045;-73
2023/11/23 15:17:07;;;;;;;1999.90;999.90;;;;;;;;;;5033133;28;20257;-74
2023/11/23 15:19:34;;;;;;;1999.90;999.90;;;;;;;;;;5032757;28;20091;-73
2023/11/23 15:22:05;;;;;;;1999.90;999.90;;;;;;;;;;5032647;28;20571;-74
2023/11/23 15:24:37;;;;;;;1999.90;999.90;;;;;;;;;;5025016;28;20026;-76
2023/11/23 15:27:04;;;;;;;;;;;;;;;;;;5013572;28;20034;-73
2023/11/23 15:29:30;;;;;;;1999.90;999.90;;;;;;;;;;5021172;28;19912;-70
2023/11/23 15:31:57;;;;;;;1999.90;999.90;;;;;;;;;;5032787;28;20021;-72
2023/11/23 15:34:23;;;;;;;1999.90;999.90;;;;;;;;;;5032209;28;20108;-67
2023/11/23 15:36:51;;;;;;;1999.90;999.90;;;;;;;;;;5032480;28;20030;-72
2023/11/23 15:39:18;;;;;;;1999.90;999.90;;;;;;;;;;5064394;28;20025;-73
2023/11/23 15:41:46;;;;;;;1999.90;999.90;;;;;;;;;;5032310;28;20339;-71
2023/11/23 15:44:13;;;;;;;1999.90;999.90;;;;;;;;;;5032203;28;20104;-74
2023/11/23 15:46:44;;;;;;;1999.90;999.90;;;;;;;;;;5024587;28;20420;-70
2023/11/23 15:49:13;;;;;;;1999.90;999.90;;;;;;;;;;5018412;28;20022;-68
2023/11/23 15:51:40;;;;;;;1999.90;999.90;;;;;;;;;;5022759;28;20412;-70
2023/11/23 15:54:07;;;;;;;1999.90;999.90;;;;;;;;;;5024171;28;20377;-69
2023/11/23 15:56:33;;;;;;;1999.90;999.90;;;;;;;;;;5021732;28;20042;-71
2023/11/23 15:59:01;;;;;;;1999.90;999.90;;;;;;;;;;5050383;28;20105;-72
2023/11/23 16:01:27;;;;;;;1999.90;999.90;;;;;;;;;;5014816;28;20025;-75
2023/11/23 16:03:53;;;;;;;1999.90;999.90;;;;;;;;;;5014734;28;20780;-72
2023/11/23 16:06:19;;;;;;;1999.90;999.90;;;;;;;;;;5012106;28;20057;-73
2023/11/23 16:08:46;;;;;;;1999.90;999.90;;;;;;;;;;5012047;28;20026;-74
2023/11/23 16:11:12;;;;;;;1999.90;999.90;;;;;;;;;;5014994;28;20051;-73
2023/11/23 16:13:40;;;;;;;1999.90;999.90;;;;;;;;;;5017572;28;20197;-74
2023/11/23 16:16:06;;;;;;;1999.90;999.90;;;;;;;;;;5029103;28;20079;-75
2023/11/23 16:18:35;;;;;;;1999.90;999.90;;;;;;;;;;5023207;28;20422;-72
2023/11/23 16:21:01;;;;;;;1999.90;999.90;;;;;;;;;;5052195;28;20501;-72
2023/11/23 16:23:28;;;;;;;1999.90;999.90;;;;;;;;;;5014213;28;20034;-73
2023/11/23 16:25:54;;;;;;;1999.90;999.90;;;;;;;;;;5028295;28;20128;-73
2023/11/23 16:28:20;;;;;;;1999.90;999.90;;;;;;;;;;5031566;28;20096;-71
2023/11/23 16:30:49;;;;;;;1999.90;999.90;;;;;;;;;;5031351;28;20489;-71
2023/11/23 16:33:15;;;;;;;1999.90;999.90;;;;;;;;;;5031530;28;20075;-76
2023/11/23 16:35:41;;;;;;;1999.90;999.90;;;;;;;;;;5025490;28;20026;-77
2023/11/23 16:38:09;;;;;;;1999.90;999.90;;;;;;;;;;5020106;28;20088;-74
2023/11/23 16:40:35;;;;;;;1999.90;999.90;;;;;;;;;;5054531;28;20029;-73
2023/11/23 16:43:04;;;;;;;1999.90;999.90;;;;;;;;;;5021661;28;20033;-72
2023/11/23 16:45:30;;;;;;;1999.90;999.90;;;;;;;;;;5022142;28;20013;-74
2023/11/23 16:47:57;;;;;;;1999.90;999.90;;;;;;;;;;5029578;28;20060;-76
2023/11/23 16:50:23;;;;;;;1999.90;999.90;;;;;;;;;;5030795;28;20043;-73
2023/11/23 16:52:49;;;;;;;1999.90;999.90;;;;;;;;;;5022596;28;20112;-73
2023/11/23 16:55:16;;;;;;;1999.90;999.90;;;;;;;;;;5019225;28;20037;-73
2023/11/23 16:57:42;;;;;;;1999.90;999.90;;;;;;;;;;5022248;28;20503;-73
2023/11/23 17:00:11;;;;;;;1999.90;999.90;;;;;;;;;;5021227;28;20022;-76
2023/11/23 17:02:38;;;;;;;1999.90;999.90;;;;;;;;;;5019596;28;20026;-77
2023/11/23 17:05:09;;;;;;;1999.90;999.90;;;;;;;;;;5020942;28;20044;-76
2023/11/23 17:07:35;;;;;;;1999.90;999.90;;;;;;;;;;5020968;28;20022;-74
2023/11/23 17:10:01;;;;;;;1999.90;999.90;;;;;;;;;;5020189;28;20104;-74
2023/11/23 17:12:27;;;;;;;1999.90;999.90;;;;;;;;;;5029756;28;20163;-73
2023/11/23 17:14:54;;;;;;;1999.90;999.90;;;;;;;;;;5024413;28;20025;-73
2023/11/23 17:17:20;;;;;;;1999.90;999.90;;;;;;;;;;5020843;28;20144;-72
2023/11/23 17:19:46;;;;;;;1999.90;999.90;;;;;;;;;;5020404;28;20771;-72
2023/11/23 17:22:12;;;;;;;1999.90;999.90;;;;;;;;;;5019246;28;20099;-72
2023/11/23 17:24:39;;;;;;;1999.90;999.90;;;;;;;;;;5021054;28;20129;-72
2023/11/23 17:27:05;;;;;;;1999.90;999.90;;;;;;;;;;5019972;28;20148;-74
2023/11/23 17:29:31;;;;;;;1999.90;999.90;;;;;;;;;;5019176;28;20021;-72
2023/11/23 17:31:57;;;;;;;1999.90;999.90;;;;;;;;;;5020752;28;20099;-78
2023/11/23 17:34:27;;;;;;;1999.90;999.90;;;;;;;;;;5026189;28;20030;-78
2023/11/23 17:36:53;;;;;;;1999.90;999.90;;;;;;;;;;5028739;28;20030;-75
2023/11/23 17:39:24;;;;;;;1999.90;999.90;;;;;;;;;;5022737;28;20135;-72
2023/11/23 17:41:50;;;;;;;1999.90;999.90;;;;;;;;;;5020205;28;20054;-70
2023/11/23 17:44:17;;;;;;;1999.90;999.90;;;;;;;;;;5023903;28;20022;-70
2023/11/23 17:46:43;;;;;;;1999.90;999.90;;;;;;;;;;5023959;28;20079;-76
2023/11/23 17:49:10;;;;;;;1999.90;999.90;;;;;;;;;;5024801;28;20116;-72
2023/11/23 17:51:39;;;;;;;1999.90;999.90;;;;;;;;;;5030139;28;20403;-78
2023/11/23 17:54:06;;;;;;;1999.90;999.90;;;;;;;;;;5030397;28;20036;-74
2023/11/23 17:56:36;;;;;;;1999.90;999.90;;;;;;;;;;5030016;28;20021;-77
2023/11/23 17:59:02;;;;;;;1999.90;999.90;;;;;;;;;;5030168;28;20026;-75
2023/11/23 18:01:29;;;;;;;1999.90;999.90;;;;;;;;;;5029066;28;20063;-74
2023/11/23 18:03:55;;;;;;;1999.90;999.90;;;;;;;;;;5033436;28;20022;-77
2023/11/23 18:06:22;;;;;;;1999.90;999.90;;;;;;;;;;5034071;28;20108;-75
2023/11/23 18:08:48;;;;;;;1999.90;999.90;;;;;;;;;;5034215;28;20048;-74
2023/11/23 18:11:15;;;;;;;1999.90;999.90;;;;;;;;;;5034226;28;20040;-75
2023/11/23 18:13:41;;;;;;;1999.90;999.90;;;;;;;;;;5034233;28;20130;-74
2023/11/23 18:16:07;;;;;;;1999.90;999.90;;;;;;;;;;5034225;28;20136;-77
2023/11/23 18:18:35;;;;;;;1999.90;999.90;;;;;;;;;;5028706;28;20028;-76
2023/11/23 18:21:01;;;;;;;1999.90;999.90;;;;;;;;;;5020538;28;20082;-74
2023/11/23 18:23:28;;;;;;;1999.90;999.90;;;;;;;;;;5019203;28;20045;-72
2023/11/23 18:25:55;;;;;;;1999.90;999.90;;;;;;;;;;5033829;28;20048;-77
2023/11/23 18:28:22;;;;;;;1999.90;999.90;;;;;;;;;;5033650;28;20018;-73
2023/11/23 18:30:50;;;;;;;1999.90;999.90;;;;;;;;;;5033615;28;20113;-71
2023/11/23 18:33:19;;;;;;;1999.90;999.90;;;;;;;;;;5026844;28;20081;-70
2023/11/23 18:35:45;;;;;;;1999.90;999.90;;;;;;;;;;5024064;28;20013;-73
2023/11/23 18:38:13;;;;;;;1999.90;999.90;;;;;;;;;;5014139;28;20142;-75
2023/11/23 18:40:39;;;;;;;1999.90;999.90;;;;;;;;;;5013757;28;20050;-75
2023/11/23 18:43:05;;;;;;;1999.90;999.90;;;;;;;;;;5016825;28;20034;-72
2023/11/23 18:45:32;;;;;;;1999.90;999.90;;;;;;;;;;5027484;28;20487;-73
2023/11/23 18:47:59;;;;;;;1999.90;999.90;;;;;;;;;;5030961;28;20028;-70
2023/11/23 18:50:25;;;;;;;1999.90;999.90;;;;;;;;;;5023579;28;20030;-72
2023/11/23 18:52:51;;;;;;;1999.90;999.90;;;;;;;;;;5025770;28;20042;-72
2023/11/23 18:55:18;;;;;;;1999.90;999.90;;;;;;;;;;5018322;28;20113;-68
2023/11/23 18:57:44;;;;;;;1999.90;999.90;;;;;;;;;;5031578;28;20032;-74
2023/11/23 19:00:11;;;;;;;1999.90;999.90;;;;;;;;;;5017348;28;20367;-70
2023/11/23 19:02:42;;;;;;;1999.90;999.90;;;;;;;;;;5013544;28;20029;-71
2023/11/23 19:05:13;;;;;;;1999.90;999.90;;;;;;;;;;5018819;28;20037;-74
2023/11/23 19:07:41;;;;;;;1999.90;999.90;;;;;;;;;;5020993;28;20782;-70
2023/11/23 19:10:11;;;;;;;1999.90;999.90;;;;;;;;;;5022461;28;20029;-68
2023/11/23 19:12:38;;;;;;;1999.90;999.90;;;;;;;;;;5018788;28;20481;-68
2023/11/23 19:15:05;;;;;;;1999.90;999.90;;;;;;;;;;5032872;28;20033;-68
2023/11/23 19:17:32;;;;;;;1999.90;999.90;;;;;;;;;;5033115;28;20082;-69
2023/11/23 19:19:59;;;;;;;1999.90;999.90;;;;;;;;;;5032534;28;20029;-69
2023/11/23 19:22:25;;;;;;;1999.90;999.90;;;;;;;;;;5024020;28;20489;-71
2023/11/23 19:24:52;;;;;;;1999.90;999.90;;;;;;;;;;5022615;28;20072;-69
2023/11/23 19:27:19;;;;;;;1999.90;999.90;;;;;;;;;;5012862;28;20036;-72
2023/11/23 19:29:48;;;;;;;1999.90;999.90;;;;;;;;;;5013203;28;20036;-75
2023/11/23 19:32:23;;;;;;;1999.90;999.90;;;;;;;;;;5013011;28;20037;-81
2023/11/23 19:34:52;;;;;;;1999.90;999.90;;;;;;;;;;5012912;28;20029;-69
2023/11/23 19:37:20;;;;;;;1999.90;999.90;;;;;;;;;;5017510;28;20655;-70
2023/11/23 19:39:47;;;;;;;1999.90;999.90;;;;;;;;;;5032229;28;20025;-71
2023/11/23 19:42:16;;;;;;;1999.90;999.90;;;;;;;;;;5031725;28;20572;-72
2023/11/23 19:44:42;;;;;;;1999.90;999.90;;;;;;;;;;5031354;28;20033;-72
2023/11/23 19:47:09;;;;;;;1999.90;999.90;;;;;;;;;;5031966;28;20116;-73
2023/11/23 19:49:35;;;;;;;1999.90;999.90;;;;;;;;;;5031582;28;20109;-72
2023/11/23 19:52:25;;;;;;;1999.90;999.90;;;;;;;;;;5030629;28;20026;-73
2023/11/23 19:54:51;;;;;;;1999.90;999.90;;;;;;;;;;5019830;28;20435;-72
2023/11/23 19:57:20;;;;;;;1999.90;999.90;;;;;;;;;;5030361;28;20036;-72
2023/11/23 19:59:46;;;;;;;1999.90;999.90;;;;;;;;;;5031604;28;20225;-71
2023/11/23 20:02:16;;;;;;;1999.90;999.90;;;;;;;;;;5031359;28;20096;-71
2023/11/23 20:04:42;;;;;;;1999.90;999.90;;;;;;;;;;5031405;28;20104;-73
2023/11/23 20:07:09;;;;;;;1999.90;999.90;;;;;;;;;;5031122;28;20033;-70
2023/11/23 20:09:36;;;;;;;1999.90;999.90;;;;;;;;;;5031053;28;20029;-72
2023/11/23 20:12:02;;;;;;;1999.90;999.90;;;;;;;;;;5031217;28;20045;-72
2023/11/23 20:14:29;;;;;;;1999.90;999.90;;;;;;;;;;5031014;28;20116;-69
2023/11/23 20:16:55;;;;;;;1999.90;999.90;;;;;;;;;;5030867;28;20026;-70
2023/11/23 20:19:21;;;;;;;1999.90;999.90;;;;;;;;;;5030743;28;20250;-70
2023/11/23 20:21:47;;;;;;;1999.90;999.90;;;;;;;;;;5029841;28;20029;-71
2023/11/23 20:24:13;;;;;;;1999.90;999.90;;;;;;;;;;5029905;28;20029;-71
2023/11/23 20:26:40;;;;;;;1999.90;999.90;;;;;;;;;;5029900;28;20079;-72
2023/11/23 20:29:06;;;;;;;1999.90;999.90;;;;;;;;;;5030760;28;20040;-73
2023/11/23 20:31:36;;;;;;;1999.90;999.90;;;;;;;;;;5030926;28;20025;-71
2023/11/23 20:34:03;;;;;;;1999.90;999.90;;;;;;;;;;5030004;28;20017;-71
2023/11/23 20:36:29;;;;;;;1999.90;999.90;;;;;;;;;;5030397;28;20053;-73
2023/11/23 20:38:55;;;;;;;1999.90;999.90;;;;;;;;;;5030759;28;20056;-72
2023/11/23 20:41:22;;;;;;;1999.90;999.90;;;;;;;;;;5030452;28;20061;-72
2023/11/23 20:43:48;;;;;;;1999.90;999.90;;;;;;;;;;5030449;28;20033;-71
2023/11/23 20:46:16;;;;;;;1999.90;999.90;;;;;;;;;;5029319;28;20029;-71
2023/11/23 20:48:42;;;;;;;1999.90;999.90;;;;;;;;;;5030372;28;20549;-70
2023/11/23 20:51:08;;;;;;;1999.90;999.90;;;;;;;;;;5029828;28;20037;-73
2023/11/23 20:53:34;;;;;;;1999.90;999.90;;;;;;;;;;5029407;28;20021;-70
2023/11/23 20:56:00;;;;;;;1999.90;999.90;;;;;;;;;;5030199;28;20032;-71
2023/11/23 20:58:27;;;;;;;1999.90;999.90;;;;;;;;;;5029773;28;20025;-71
2023/11/23 21:00:56;;;;;;;1999.90;999.90;;;;;;;;;;5030039;28;20033;-72
2023/11/23 21:03:22;;;;;;;1999.90;999.90;;;;;;;;;;5030397;28;20103;-70
2023/11/23 21:05:49;;;;;;;1999.90;999.90;;;;;;;;;;5029763;28;20032;-74
2023/11/23 21:08:17;;;;;;;1999.90;999.90;;;;;;;;;;5029788;28;20068;-73
2023/11/23 21:10:44;;;;;;;1999.90;999.90;;;;;;;;;;5029428;28;20036;-73
2023/11/23 21:13:10;;;;;;;1999.90;999.90;;;;;;;;;;5028637;28;20112;-74
2023/11/23 21:15:36;;;;;;;1999.90;999.90;;;;;;;;;;5018398;28;20029;-70
2023/11/23 21:18:02;;;;;;;1999.90;999.90;;;;;;;;;;5020609;28;21082;-71
2023/11/23 21:20:29;;;;;;;1999.90;999.90;;;;;;;;;;5028082;28;20013;-70
2023/11/23 21:22:55;;;;;;;1999.90;999.90;;;;;;;;;;5018211;28;20038;-74
2023/11/23 21:25:21;;;;;;;1999.90;999.90;;;;;;;;;;5013917;28;20026;-75
2023/11/23 21:27:49;;;;;;;1999.90;999.90;;;;;;;;;;5012536;28;20472;-77
2023/11/23 21:30:18;;;;;;;1999.90;999.90;;;;;;;;;;5014736;28;20193;-74
2023/11/23 21:32:45;;;;;;;1999.90;999.90;;;;;;;;;;5012380;28;20025;-69
2023/11/23 21:35:11;;;;;;;1999.90;999.90;;;;;;;;;;5028353;28;20148;-74
2023/11/23 21:37:37;;;;;;;1999.90;999.90;;;;;;;;;;5026515;28;20115;-75
2023/11/23 21:40:04;;;;;;;1999.90;999.90;;;;;;;;;;5028465;28;20155;-75
2023/11/23 21:42:30;;;;;;;1999.90;999.90;;;;;;;;;;5019768;28;20084;-75
2023/11/23 21:44:56;;;;;;;1999.90;999.90;;;;;;;;;;5015765;28;20029;-74
2023/11/23 21:47:22;;;;;;;1999.90;999.90;;;;;;;;;;5028795;28;20491;-73
2023/11/23 21:49:48;;;;;;;1999.90;999.90;;;;;;;;;;5028884;28;20034;-73
2023/11/23 21:52:14;;;;;;;1999.90;999.90;;;;;;;;;;5028841;28;20030;-72
2023/11/23 21:54:41;;;;;;;1999.90;999.90;;;;;;;;;;5022335;28;20507;-70
2023/11/23 21:57:07;;;;;;;1999.90;999.90;;;;;;;;;;5022555;28;20773;-73
2023/11/23 21:59:38;;;;;;;1999.90;999.90;;;;;;;;;;5028787;28;20025;-73
2023/11/23 22:02:04;;;;;;;1999.90;999.90;;;;;;;;;;5029627;28;20856;-73
2023/11/23 22:04:36;;;;;;;1999.90;999.90;;;;;;;;;;5021058;28;20032;-72
2023/11/23 22:07:03;;;;;;;1999.90;999.90;;;;;;;;;;5018747;28;20034;-73
2023/11/23 22:09:30;;;;;;;1999.90;999.90;;;;;;;;;;5029691;28;20380;-72
2023/11/23 22:11:57;;;;;;;1999.90;999.90;;;;;;;;;;5018169;28;20038;-74
2023/11/23 22:14:26;;;;;;;1999.90;999.90;;;;;;;;;;5018550;28;20033;-72
2023/11/23 22:16:53;;;;;;;1999.90;999.90;;;;;;;;;;5024641;28;20032;-75
2023/11/23 22:19:21;;;;;;;1999.90;999.90;;;;;;;;;;5019792;28;20026;-71
2023/11/23 22:21:47;;;;;;;1999.90;999.90;;;;;;;;;;5018182;28;20046;-73
2023/11/23 22:24:17;;;;;;;1999.90;999.90;;;;;;;;;;5020734;28;20484;-73
2023/11/23 22:26:45;;;;;;;1999.90;999.90;;;;;;;;;;5017871;28;20638;-73
2023/11/23 22:29:12;;;;;;;1999.90;999.90;;;;;;;;;;5030066;28;20025;-74
2023/11/23 22:31:39;;;;;;;1999.90;999.90;;;;;;;;;;5024210;28;20026;-72
2023/11/23 22:34:06;;;;;;;1999.90;999.90;;;;;;;;;;5010493;28;20061;-75
2023/11/23 22:36:32;;;;;;;1999.90;999.90;;;;;;;;;;5010511;28;20127;-71
2023/11/23 22:38:58;;;;;;;1999.90;999.90;;;;;;;;;;5010016;28;20041;-74
2023/11/23 22:41:27;;;;;;;1999.90;999.90;;;;;;;;;;5010019;28;20396;-73
2023/11/23 22:43:54;;;;;;;1999.90;999.90;;;;;;;;;;5010188;28;20026;-73
2023/11/23 22:46:20;;;;;;;1999.90;999.90;;;;;;;;;;5010379;28;20033;-73
2023/11/23 22:48:46;;;;;;;1999.90;999.90;;;;;;;;;;5011545;28;20026;-73
2023/11/23 22:51:13;;;;;;;1999.90;999.90;;;;;;;;;;5014060;28;20026;-73
2023/11/23 22:53:39;;;;;;;1999.90;999.90;;;;;;;;;;5013669;28;20026;-73
2023/11/23 22:56:05;;;;;;;1999.90;999.90;;;;;;;;;;5014098;28;20057;-74
2023/11/23 22:58:31;;;;;;;1999.90;999.90;;;;;;;;;;5013466;28;20030;-73
2023/11/23 23:00:57;;;;;;;1999.90;999.90;;;;;;;;;;5013697;28;20114;-73
2023/11/23 23:03:23;;;;;;;1999.90;999.90;;;;;;;;;;5012562;28;20048;-73
2023/11/23 23:05:49;;;;;;;1999.90;999.90;;;;;;;;;;5013407;28;20100;-73
2023/11/23 23:08:15;;;;;;;1999.90;999.90;;;;;;;;;;5013466;28;20091;-73
2023/11/23 23:10:43;;;;;;;1999.90;999.90;;;;;;;;;;5011874;28;20137;-73
2023/11/23 23:13:11;;;;;;;1999.90;999.90;;;;;;;;;;5013555;28;20026;-77
2023/11/23 23:15:37;;;;;;;1999.90;999.90;;;;;;;;;;5013632;28;20030;-73
2023/11/23 23:18:03;;;;;;;1999.90;999.90;;;;;;;;;;5013470;28;20370;-74
2023/11/23 23:20:29;;;;;;;1999.90;999.90;;;;;;;;;;5012117;28;20061;-73
2023/11/23 23:22:55;;;;;;;1999.90;999.90;;;;;;;;;;5013133;28;20026;-74